Time;durP1;ratioP1;P1;durP2;ratioP2;P2;SDS_P1;SDS_P2;PMS_P1;PMS_P2;Temp;Humidity;BMP_temperature;BMP_pressure;BME280_temperature;BME280_humidity;BME280_pressure;Samples;Min_cycle;Max_cycle;Signal;HPM_P1;HPM_P2
2023/04/07 00:00:29;;;;;;;15.23;10.77;;;;;;;11.36;84.25;101226.19;5072704;28;20039;-85
2023/04/07 00:02:55;;;;;;;;;;;;;;;11.65;84.33;101274.94;5054998;28;20111;-86
2023/04/07 00:05:21;;;;;;;15.03;10.27;;;;;;;11.33;84.21;101219.06;5055260;28;19912;-86
2023/04/07 00:07:47;;;;;;;15.10;10.43;;;;;;;11.61;84.05;101263.41;5046767;28;20577;-87
2023/04/07 00:10:13;;;;;;;14.25;10.38;;;;;;;11.63;84.05;101266.09;5072628;28;20449;-87
2023/04/07 00:12:46;;;;;;;13.48;10.05;;;;;;;11.65;83.94;101260.97;5074162;28;20028;-87
2023/04/07 00:15:11;;;;;;;14.70;10.38;;;;;;;11.67;83.76;101268.09;5065057;28;20020;-87
2023/04/07 00:17:37;;;;;;;14.25;10.65;;;;;;;11.54;84.02;101245.56;5060429;28;20071;-86
2023/04/07 00:20:03;;;;;;;14.93;10.15;;;;;;;11.55;84.03;101255.19;5096572;28;20024;-86
2023/04/07 00:22:28;;;;;;;14.07;10.02;;;;;;;11.42;83.76;101229.16;5059364;28;20036;-87
2023/04/07 00:24:54;;;;;;;14.40;10.18;;;;;;;11.43;83.88;101230.97;5054580;28;20036;-87
2023/04/07 00:27:20;;;;;;;14.32;10.25;;;;;;;11.63;83.79;101275.69;5050093;28;20025;-86
2023/04/07 00:29:46;;;;;;;14.15;10.45;;;;;;;11.13;83.90;101176.09;5054679;28;20170;-87
2023/04/07 00:32:12;;;;;;;16.17;10.00;;;;;;;11.44;83.66;101232.75;5072239;28;20115;-87
2023/04/07 00:34:37;;;;;;;15.13;11.32;;;;;;;11.44;83.68;101227.53;5072669;28;20025;-87
2023/04/07 00:37:05;;;;;;;14.18;10.23;;;;;;;11.33;83.54;101216.44;5071745;28;20032;-87
2023/04/07 00:39:31;;;;;;;13.27;9.90;;;;;;;11.65;83.40;101269.72;5072013;28;20041;-86
2023/04/07 00:41:57;;;;;;;16.27;10.80;;;;;;;11.60;83.30;101264.22;5082433;28;20620;-87
2023/04/07 00:44:22;;;;;;;14.48;10.10;;;;;;;11.59;82.96;101266.75;5074332;28;20119;-87
2023/04/07 00:46:48;;;;;;;13.40;10.35;;;;;;;11.37;83.29;101225.38;5053829;28;20129;-87
2023/04/07 00:49:16;;;;;;;14.73;10.07;;;;;;;11.18;82.66;101200.78;5091963;28;20031;-87
2023/04/07 00:51:42;;;;;;;14.43;10.05;;;;;;;11.29;83.00;101211.84;5057518;28;20498;-87
2023/04/07 00:54:09;;;;;;;14.10;10.38;;;;;;;11.61;82.86;101270.34;5090528;28;20024;-87
2023/04/07 00:56:34;;;;;;;15.15;10.07;;;;;;;11.51;82.69;101253.22;5073433;28;20788;-86
2023/04/07 00:59:00;;;;;;;13.38;10.10;;;;;;;11.30;82.56;101218.91;5074482;28;20030;-86
2023/04/07 01:01:41;;;;;;;15.75;10.18;;;;;;;11.52;82.76;101261.97;5090879;28;20038;-86
2023/04/07 01:04:56;;;;;;;14.40;9.82;;;;;;;11.60;82.87;101271.19;5091481;28;20028;-87
2023/04/07 01:07:34;;;;;;;15.68;10.52;;;;;;;11.61;82.67;101275.59;5056210;28;20039;-86
2023/04/07 01:10:02;;;;;;;15.02;9.70;;;;;;;11.36;82.33;101232.31;5074228;28;20034;-87
2023/04/07 01:12:49;;;;;;;14.98;10.10;;;;;;;11.52;82.44;101260.25;5074238;28;20023;-86
2023/04/07 01:15:15;;;;;;;12.75;9.70;;;;;;;11.43;82.42;101235.28;5061589;28;20032;-87
2023/04/07 01:17:44;;;;;;;13.00;10.02;;;;;;;11.55;81.86;101268.28;5071963;28;20399;-86
2023/04/07 01:20:19;;;;;;;12.75;9.32;;;;;;;11.52;82.54;101261.97;5074160;28;20032;-86
2023/04/07 01:22:55;;;;;;;12.32;9.02;;;;;;;11.37;82.50;101241.06;5074029;28;20481;-87
2023/04/07 01:26:00;;;;;;;13.02;9.82;;;;;;;11.54;82.37;101273.44;5072118;28;20024;-87
2023/04/07 01:28:49;;;;;;;15.07;9.60;;;;;;;11.54;82.50;101282.19;5055966;28;20040;-86
2023/04/07 01:31:15;;;;;;;12.02;9.32;;;;;;;11.34;81.90;101238.25;5087922;28;20063;-86
2023/04/07 01:33:43;;;;;;;14.45;9.63;;;;;;;11.37;82.04;101265.50;5089131;28;20016;-86
2023/04/07 01:36:11;;;;;;;13.40;9.32;;;;;;;11.47;82.54;101279.09;5074007;28;20024;-86
2023/04/07 01:38:37;;;;;;;11.73;9.30;;;;;;;11.32;82.58;101248.63;5071485;28;20549;-86
2023/04/07 01:41:02;;;;;;;;;;;;;;;11.54;82.33;101283.91;5056949;28;20075;-86
2023/04/07 01:43:29;;;;;;;11.75;8.90;;;;;;;11.33;82.08;101244.31;5072426;28;20412;-86
2023/04/07 01:45:55;;;;;;;12.80;9.23;;;;;;;11.29;82.56;101240.63;5091587;28;20024;-87
2023/04/07 01:48:21;;;;;;;12.68;9.25;;;;;;;11.30;82.52;101236.28;5091825;28;20392;-86
2023/04/07 01:50:48;;;;;;;12.38;9.38;;;;;;;11.28;82.18;101235.28;5067897;28;20032;-86
2023/04/07 01:53:14;;;;;;;12.40;9.43;;;;;;;11.48;82.82;101284.44;5089576;28;20028;-86
2023/04/07 01:55:42;;;;;;;10.73;8.68;;;;;;;11.24;82.35;101230.69;5072467;28;20023;-86
2023/04/07 01:58:07;;;;;;;14.48;9.82;;;;;;;11.39;82.15;101270.81;5073486;28;20110;-86
2023/04/07 02:00:33;;;;;;;13.18;9.45;;;;;;;11.43;82.47;101278.03;5090407;28;20115;-86
2023/04/07 02:03:06;;;;;;;11.63;8.75;;;;;;;11.18;82.42;101226.03;5055575;28;20412;-87
2023/04/07 02:05:33;;;;;;;12.30;9.57;;;;;;;11.18;82.20;101231.25;5077517;28;20023;-87
2023/04/07 02:08:03;;;;;;;12.88;9.32;;;;;;;11.31;82.28;101261.63;5072995;28;20120;-87
2023/04/07 02:10:30;;;;;;;14.45;10.00;;;;;;;11.29;82.35;101244.94;5073209;28;20031;-87
2023/04/07 02:12:56;;;;;;;11.10;8.70;;;;;;;11.36;82.59;101268.91;5070596;28;20024;-86
2023/04/07 02:15:23;;;;;;;13.05;9.65;;;;;;;11.38;82.17;101266.41;5062507;28;20028;-87
2023/04/07 02:17:51;;;;;;;11.82;8.98;;;;;;;11.44;81.80;101278.94;5072938;28;20581;-87
2023/04/07 02:20:17;;;;;;;13.38;9.68;;;;;;;11.29;82.33;101251.06;5072649;28;20032;-87
2023/04/07 02:22:43;;;;;;;11.98;9.18;;;;;;;11.24;82.34;101249.00;5056389;28;20024;-87
2023/04/07 02:25:30;;;;;;;12.88;9.50;;;;;;;11.51;82.59;101291.53;5068577;28;20082;-86
2023/04/07 02:27:57;;;;;;;12.77;9.00;;;;;;;11.30;82.26;101249.34;5092952;28;20465;-87
2023/04/07 02:30:23;;;;;;;12.15;8.80;;;;;;;11.49;82.51;101283.59;5066207;28;20032;-86
2023/04/07 02:32:49;;;;;;;10.95;8.88;;;;;;;11.49;82.61;101286.22;5072185;28;20023;-87
2023/04/07 02:35:15;;;;;;;13.25;9.32;;;;;;;11.48;82.89;101287.03;5071525;28;20378;-84
2023/04/07 02:37:41;;;;;;;;;;;;;;;11.51;82.53;101292.44;5073137;28;20031;-85
2023/04/07 02:40:07;;;;;;;13.65;9.00;;;;;;;11.49;82.68;101288.84;5072368;28;19916;-85
2023/04/07 02:42:33;;;;;;;13.63;8.90;;;;;;;11.01;82.52;101209.34;5089950;28;20055;-86
2023/04/07 02:44:58;;;;;;;11.60;9.02;;;;;;;11.41;82.52;101290.13;5071580;28;20032;-87
2023/04/07 02:47:24;;;;;;;11.73;9.27;;;;;;;11.46;82.66;101295.63;5089725;28;20028;-86
2023/04/07 02:49:50;;;;;;;11.93;8.98;;;;;;;11.37;82.42;101273.34;5072742;28;20065;-86
2023/04/07 02:52:16;;;;;;;12.20;8.65;;;;;;;11.35;82.70;101274.97;5090602;28;20085;-86
2023/04/07 02:54:42;;;;;;;12.65;9.10;;;;;;;11.45;82.46;101302.56;5089718;28;20494;-86
2023/04/07 02:57:08;;;;;;;11.93;8.73;;;;;;;11.33;82.11;101271.34;5071969;28;20024;-86
2023/04/07 02:59:34;;;;;;;11.95;9.05;;;;;;;11.36;82.37;101275.84;5072018;28;20401;-86
2023/04/07 03:01:59;;;;;;;11.13;8.70;;;;;;;11.25;82.64;101263.88;5090289;28;20027;-86
2023/04/07 03:04:28;;;;;;;11.48;9.07;;;;;;;11.34;82.17;101281.00;5089407;28;20081;-86
2023/04/07 03:06:55;;;;;;;15.18;8.93;;;;;;;11.10;82.21;101240.34;5092122;28;20114;-86
2023/04/07 03:09:21;;;;;;;12.02;8.73;;;;;;;10.98;82.70;101224.81;5094247;28;20067;-86
2023/04/07 03:11:46;;;;;;;13.30;9.30;;;;;;;11.06;82.34;101223.56;5093087;28;20545;-87
2023/04/07 03:14:12;;;;;;;12.10;9.18;;;;;;;11.16;81.97;101257.28;5093627;28;20074;-86
2023/04/07 03:16:37;;;;;;;12.57;9.20;;;;;;;11.26;82.29;101268.28;5093731;28;20030;-87
2023/04/07 03:19:03;;;;;;;11.00;8.63;;;;;;;11.14;82.35;101251.06;5075493;28;20578;-85
2023/04/07 03:21:30;;;;;;;11.45;9.23;;;;;;;11.15;82.17;101249.34;5059352;28;20032;-87
2023/04/07 03:23:56;;;;;;;10.73;8.40;;;;;;;11.27;81.74;101271.00;5093489;28;20032;-87
2023/04/07 03:26:22;;;;;;;12.35;9.18;;;;;;;11.05;82.00;101236.53;5093052;28;20034;-87
2023/04/07 03:28:47;;;;;;;11.35;9.00;;;;;;;11.10;81.75;101241.25;5081153;28;20035;-87
2023/04/07 03:31:13;;;;;;;11.85;8.93;;;;;;;11.30;82.23;101281.66;5093454;28;20627;-86
2023/04/07 03:33:38;;;;;;;13.25;9.15;;;;;;;11.30;82.08;101289.50;5092449;28;20032;-87
2023/04/07 03:36:04;;;;;;;11.98;8.88;;;;;;;11.34;81.75;101293.16;5073297;28;20062;-87
2023/04/07 03:38:30;;;;;;;12.45;9.30;;;;;;;11.26;81.53;101291.81;5075834;28;20463;-87
2023/04/07 03:40:55;;;;;;;11.68;9.13;;;;;;;10.86;81.58;101230.25;5058788;28;20032;-87
2023/04/07 03:43:21;;;;;;;11.67;8.77;;;;;;;11.05;82.08;101261.00;5092549;28;20051;-88
2023/04/07 03:45:47;;;;;;;11.10;8.70;;;;;;;11.26;81.97;101297.03;5075052;28;20273;-87
2023/04/07 03:48:12;;;;;;;13.77;9.30;;;;;;;11.09;81.70;101267.28;5075376;28;20093;-85
2023/04/07 03:50:39;;;;;;;11.60;9.07;;;;;;;11.33;81.69;101305.34;5075286;28;20485;-87
2023/04/07 03:53:05;;;;;;;11.57;9.15;;;;;;;11.41;81.95;101321.50;5074053;28;20042;-87
2023/04/07 03:55:32;;;;;;;12.75;9.40;;;;;;;11.39;81.68;101329.25;5093847;28;20463;-87
2023/04/07 03:57:57;;;;;;;14.10;9.13;;;;;;;11.23;81.87;101302.09;5075773;28;20066;-87
2023/04/07 04:00:23;;;;;;;12.15;8.77;;;;;;;11.37;81.72;101325.66;5075145;28;20060;-87
2023/04/07 04:02:48;;;;;;;12.00;9.20;;;;;;;11.03;81.92;101279.97;5074634;28;20107;-87
2023/04/07 04:05:14;;;;;;;11.50;8.65;;;;;;;10.96;81.60;101274.41;5075341;28;20081;-87
2023/04/07 04:07:40;;;;;;;11.50;8.75;;;;;;;11.31;81.65;101327.88;5093464;28;20486;-87
2023/04/07 04:10:06;;;;;;;11.70;8.95;;;;;;;11.17;81.53;101320.91;5092834;28;20028;-87
2023/04/07 04:12:31;;;;;;;;;;;;;;;11.43;81.58;101352.97;5074801;28;20046;-87
2023/04/07 04:14:57;;;;;;;14.27;8.95;;;;;;;11.24;81.50;101332.63;5075144;28;19915;-87
2023/04/07 04:17:24;;;;;;;11.77;8.85;;;;;;;11.38;81.59;101360.53;5093373;28;20139;-87
2023/04/07 04:19:50;;;;;;;16.05;8.75;;;;;;;11.29;81.70;101349.53;5056909;28;20433;-87
2023/04/07 04:22:16;;;;;;;10.80;8.63;;;;;;;11.11;81.51;101317.94;5070460;28;20031;-87
2023/04/07 04:24:41;;;;;;;13.68;9.70;;;;;;;11.24;81.74;101335.25;5091445;28;20027;-87
2023/04/07 04:27:07;;;;;;;13.23;8.77;;;;;;;11.15;81.93;101330.38;5093312;28;20032;-87
2023/04/07 04:29:32;;;;;;;12.15;8.73;;;;;;;11.33;81.55;101360.25;5074113;28;20040;-87
2023/04/07 04:31:58;;;;;;;10.63;8.52;;;;;;;11.02;81.68;101307.81;5068231;28;20028;-87
2023/04/07 04:34:24;;;;;;;10.95;8.60;;;;;;;11.06;81.84;101316.75;5092790;28;20035;-88
2023/04/07 04:36:49;;;;;;;12.40;8.98;;;;;;;11.05;81.75;101314.94;5075712;28;20026;-87
2023/04/07 04:39:15;;;;;;;12.02;8.70;;;;;;;11.24;81.86;101357.09;5075012;28;20035;-87
2023/04/07 04:41:40;;;;;;;11.40;9.30;;;;;;;11.28;81.74;101366.00;5056416;28;20053;-88
2023/04/07 04:44:06;;;;;;;11.55;8.88;;;;;;;11.13;81.59;101337.22;5070584;28;20039;-88
2023/04/07 04:46:32;;;;;;;11.27;8.43;;;;;;;11.33;81.84;101382.91;5071563;28;20036;-88
2023/04/07 04:49:00;;;;;;;11.70;9.30;;;;;;;11.18;81.54;101351.50;5054455;28;20486;-88
2023/04/07 04:51:26;;;;;;;12.95;9.75;;;;;;;10.82;81.55;101290.94;5070706;28;20063;-86
2023/04/07 04:53:51;;;;;;;12.93;9.00;;;;;;;11.06;81.97;101325.50;5054242;28;20113;-87
2023/04/07 04:56:17;;;;;;;12.43;8.82;;;;;;;11.24;81.76;101362.31;5063007;28;21801;-88
2023/04/07 04:58:45;;;;;;;12.85;8.93;;;;;;;11.30;81.68;101378.38;5049140;28;20486;-87
2023/04/07 05:01:11;;;;;;;12.43;8.98;;;;;;;11.25;81.91;101379.81;5048530;28;20067;-85
2023/04/07 05:03:37;;;;;;;12.82;9.20;;;;;;;11.23;81.55;101376.19;5043644;28;20040;-86
2023/04/07 05:06:03;;;;;;;12.75;8.95;;;;;;;11.27;81.77;101383.41;5054305;28;20051;-85
2023/04/07 05:08:28;;;;;;;11.13;8.90;;;;;;;11.09;81.72;101361.38;5067451;28;20063;-86
2023/04/07 05:10:54;;;;;;;12.20;9.20;;;;;;;10.87;81.76;101326.09;5068576;28;20060;-87
2023/04/07 05:13:30;;;;;;;10.55;8.88;;;;;;;10.78;81.76;101312.47;5052375;28;20040;-87
2023/04/07 05:15:55;;;;;;;11.82;8.98;;;;;;;11.16;81.81;101374.91;5070530;28;20032;-86
2023/04/07 05:18:26;;;;;;;11.45;8.93;;;;;;;11.16;82.07;101382.75;5047684;28;20041;-84
2023/04/07 05:20:52;;;;;;;12.85;8.63;;;;;;;11.12;82.15;101380.78;5048205;28;20044;-85
2023/04/07 05:23:17;;;;;;;13.35;9.38;;;;;;;11.29;82.28;101418.41;5049000;28;20043;-85
2023/04/07 05:25:43;;;;;;;13.65;9.45;;;;;;;10.87;82.07;101349.59;5052058;28;20380;-86
2023/04/07 05:28:30;;;;;;;10.70;8.60;;;;;;;10.99;82.47;101367.75;5064087;28;20505;-86
2023/04/07 05:30:55;;;;;;;11.55;9.10;;;;;;;11.20;82.14;101417.84;5047051;28;20478;-86
2023/04/07 05:33:21;;;;;;;12.70;8.68;;;;;;;11.25;81.91;101421.63;5069594;28;20030;-86
2023/04/07 05:35:47;;;;;;;12.35;8.82;;;;;;;11.09;82.04;101395.34;5043938;28;20032;-88
2023/04/07 05:38:13;;;;;;;11.57;8.88;;;;;;;11.00;82.07;101380.00;5055990;28;20033;-87
2023/04/07 05:40:39;;;;;;;11.15;8.35;;;;;;;10.86;81.85;101370.41;5051335;28;20421;-86
2023/04/07 05:43:05;;;;;;;;;;;;;;;11.33;82.33;101443.03;5048431;28;20589;-88
2023/04/07 05:45:30;;;;;;;12.40;9.00;;;;;;;11.03;82.40;101400.19;5067849;28;20015;-88
2023/04/07 05:47:56;;;;;;;12.52;8.70;;;;;;;10.96;82.30;101402.44;5066464;28;20028;-88
2023/04/07 05:50:23;;;;;;;12.88;9.32;;;;;;;11.25;82.23;101452.13;5068596;28;20036;-87
2023/04/07 05:52:48;;;;;;;10.98;9.00;;;;;;;11.04;82.27;101408.13;5049952;28;20474;-87
2023/04/07 05:55:15;;;;;;;12.10;9.13;;;;;;;10.83;82.07;101378.94;5075646;28;20036;-87
2023/04/07 05:57:40;;;;;;;12.98;8.70;;;;;;;11.21;82.20;101444.06;5080990;28;20520;-87
2023/04/07 06:00:07;;;;;;;12.55;9.23;;;;;;;10.87;82.36;101394.00;5053074;28;20047;-87
2023/04/07 06:02:32;;;;;;;;;;;;;;;11.28;82.35;101453.22;5069887;28;20036;-87
2023/04/07 06:04:58;;;;;;;12.15;9.07;;;;;;;11.20;82.46;101449.22;5068246;28;19919;-86
2023/04/07 06:07:24;;;;;;;12.43;8.85;;;;;;;11.16;82.23;101448.13;5068003;28;20530;-87
2023/04/07 06:09:50;;;;;;;12.05;8.73;;;;;;;10.75;82.03;101377.56;5052363;28;20086;-86
2023/04/07 06:12:20;;;;;;;11.80;8.85;;;;;;;11.28;82.25;101478.44;5070093;28;20032;-86
2023/04/07 06:14:52;;;;;;;11.13;8.63;;;;;;;10.65;82.33;101359.53;5055764;28;20036;-87
2023/04/07 06:17:27;;;;;;;11.93;8.63;;;;;;;10.64;82.13;101360.31;5050100;28;20421;-87
2023/04/07 06:19:58;;;;;;;11.02;8.80;;;;;;;10.91;82.45;101410.81;5052500;28;20410;-87
2023/04/07 06:22:24;;;;;;;12.75;9.25;;;;;;;10.86;82.49;101409.59;5051860;28;20487;-87
2023/04/07 06:24:50;;;;;;;12.57;8.85;;;;;;;10.96;82.50;101425.03;5057995;28;20086;-86
2023/04/07 06:27:16;;;;;;;12.32;9.32;;;;;;;11.09;82.10;101450.25;5082816;28;20059;-86
2023/04/07 06:29:47;;;;;;;12.05;8.90;;;;;;;10.86;82.40;101420.03;5071626;28;20028;-87
2023/04/07 06:32:16;;;;;;;10.98;8.38;;;;;;;10.99;82.70;101439.22;5068915;28;20043;-87
2023/04/07 06:34:44;;;;;;;11.73;8.70;;;;;;;10.97;82.13;101430.38;5052082;28;20512;-87
2023/04/07 06:37:15;;;;;;;11.30;8.75;;;;;;;11.13;82.56;101457.47;5050769;28;20032;-86
2023/04/07 06:39:41;;;;;;;10.85;8.73;;;;;;;11.01;82.21;101431.47;5067733;28;20032;-87
2023/04/07 06:42:08;;;;;;;11.52;8.68;;;;;;;10.76;82.16;101387.22;5068579;28;20056;-87
2023/04/07 06:44:34;;;;;;;12.15;9.27;;;;;;;10.64;82.33;101368.16;5049345;28;20494;-87
2023/04/07 06:47:00;;;;;;;13.20;9.32;;;;;;;11.25;82.68;101481.78;5062729;28;20034;-87
2023/04/07 06:49:25;;;;;;;11.18;8.82;;;;;;;10.83;82.79;101425.97;5070339;28;20040;-86
2023/04/07 06:51:51;;;;;;;11.68;9.02;;;;;;;11.29;82.47;101496.84;5062969;28;20047;-87
2023/04/07 06:54:17;;;;;;;13.18;8.90;;;;;;;10.77;82.80;101418.69;5069431;28;20028;-87
2023/04/07 06:56:43;;;;;;;10.88;8.70;;;;;;;11.19;82.92;101490.13;5070052;28;20043;-86
2023/04/07 06:59:09;;;;;;;11.95;8.68;;;;;;;10.78;82.46;101420.47;5065690;28;20561;-87
2023/04/07 07:01:36;;;;;;;15.25;9.05;;;;;;;10.58;82.35;101397.38;5084121;28;20094;-86
2023/04/07 07:04:02;;;;;;;11.13;8.60;;;;;;;11.20;82.51;101505.00;5079410;28;20063;-87
2023/04/07 07:06:27;;;;;;;13.63;8.63;;;;;;;11.05;82.65;101479.59;5053444;28;20064;-87
2023/04/07 07:08:53;;;;;;;12.95;9.07;;;;;;;11.12;82.31;101497.50;5058830;28;20032;-87
2023/04/07 07:11:20;;;;;;;13.02;9.60;;;;;;;10.66;82.47;101424.00;5068806;28;20028;-87
2023/04/07 07:13:46;;;;;;;11.57;8.68;;;;;;;11.22;82.56;101520.81;5068647;28;20025;-87
2023/04/07 07:16:12;;;;;;;10.02;7.72;;;;;;;10.89;82.60;101456.84;5068927;28;20501;-87
2023/04/07 07:18:38;;;;;;;12.40;8.77;;;;;;;10.87;82.86;101461.06;5068551;28;20028;-88
2023/04/07 07:21:04;;;;;;;11.32;8.73;;;;;;;10.80;82.88;101467.59;5052315;28;20036;-88
2023/04/07 07:23:30;;;;;;;10.65;8.20;;;;;;;11.25;82.39;101525.31;5057488;28;20109;-88
2023/04/07 07:25:56;;;;;;;10.23;8.13;;;;;;;10.75;82.36;101454.25;5070352;28;20494;-88
2023/04/07 07:28:23;;;;;;;10.93;8.65;;;;;;;11.05;82.75;101513.56;5076239;28;20039;-87
2023/04/07 07:30:49;;;;;;;13.40;8.98;;;;;;;11.07;82.60;101501.50;5048782;28;20071;-88
2023/04/07 07:33:14;;;;;;;11.68;8.75;;;;;;;11.02;82.70;101492.50;5068759;28;20032;-87
2023/04/07 07:35:40;;;;;;;12.32;9.02;;;;;;;11.14;82.03;101508.97;5068993;28;20036;-87
2023/04/07 07:38:11;;;;;;;12.32;8.60;;;;;;;10.44;82.57;101395.63;5068244;28;20534;-87
2023/04/07 07:40:36;;;;;;;12.00;8.80;;;;;;;10.66;82.85;101445.81;5035005;28;20036;-87
2023/04/07 07:43:02;;;;;;;12.40;9.02;;;;;;;10.79;82.71;101457.94;5069506;28;20178;-87
2023/04/07 07:45:27;;;;;;;11.82;9.00;;;;;;;11.06;82.72;101516.28;5051651;28;20093;-87
2023/04/07 07:47:53;;;;;;;11.25;8.57;;;;;;;11.06;82.85;101510.19;5052169;28;20477;-86
2023/04/07 07:50:19;;;;;;;13.35;9.23;;;;;;;10.72;82.98;101459.25;5051931;28;20041;-87
2023/04/07 07:52:45;;;;;;;;;;;;;;;11.18;82.57;101527.53;5052848;28;20111;-87
2023/04/07 07:55:10;;;;;;;11.80;8.82;;;;;;;11.17;83.01;101541.41;5062157;28;20010;-87
2023/04/07 07:57:36;;;;;;;13.23;9.13;;;;;;;10.98;82.74;101494.91;5056452;28;20029;-87
2023/04/07 08:00:03;;;;;;;12.27;9.50;;;;;;;11.06;83.00;101507.56;5059967;28;20569;-87
2023/04/07 08:02:31;;;;;;;11.77;9.25;;;;;;;11.02;82.42;101501.22;5036938;28;20741;-88
2023/04/07 08:04:57;;;;;;;11.75;9.05;;;;;;;10.98;82.68;101491.38;5051837;28;20048;-87
2023/04/07 08:07:23;;;;;;;13.77;8.45;;;;;;;11.21;82.65;101521.59;5055726;28;20028;-89
2023/04/07 08:09:48;;;;;;;12.65;9.40;;;;;;;11.12;82.68;101523.63;5055403;28;20413;-86
2023/04/07 08:12:14;;;;;;;11.82;8.75;;;;;;;11.20;82.89;101525.03;5073233;28;20707;-86
2023/04/07 08:14:40;;;;;;;11.30;8.68;;;;;;;11.18;82.65;101526.66;5055276;28;20020;-87
2023/04/07 08:17:06;;;;;;;10.70;8.25;;;;;;;11.15;82.56;101518.59;5055219;28;20111;-87
2023/04/07 08:19:31;;;;;;;12.00;8.93;;;;;;;10.88;82.58;101473.28;5075223;28;20043;-87
2023/04/07 08:21:57;;;;;;;13.00;9.30;;;;;;;10.99;82.98;101486.25;5082804;28;20509;-87
2023/04/07 08:24:23;;;;;;;12.00;8.45;;;;;;;11.12;82.11;101494.88;5034701;28;20033;-88
2023/04/07 08:26:49;;;;;;;12.13;9.07;;;;;;;10.87;82.22;101450.59;5063033;28;20465;-88
2023/04/07 08:29:14;;;;;;;12.55;8.88;;;;;;;11.07;82.21;101502.44;5057253;28;20116;-88
2023/04/07 08:31:42;;;;;;;11.70;8.70;;;;;;;11.16;81.88;101518.69;5063598;28;20659;-88
2023/04/07 08:34:12;;;;;;;10.73;8.48;;;;;;;11.24;81.88;101524.44;5061861;28;20036;-89
2023/04/07 08:36:38;;;;;;;11.90;8.93;;;;;;;11.22;82.31;101536.50;5037760;28;20119;-89
2023/04/07 08:39:05;;;;;;;13.63;9.07;;;;;;;11.06;82.17;101500.63;5072728;28;20108;-88
2023/04/07 08:41:38;;;;;;;13.23;8.98;;;;;;;11.33;81.91;101542.41;5046588;28;20043;-88
2023/04/07 08:44:04;;;;;;;12.48;9.40;;;;;;;11.12;81.82;101515.78;5074972;28;20116;-87
2023/04/07 08:46:29;;;;;;;12.48;9.20;;;;;;;10.96;82.00;101488.69;5067794;28;20050;-87
2023/04/07 08:48:56;;;;;;;11.73;8.98;;;;;;;11.08;81.86;101505.94;5083105;28;20036;-88
2023/04/07 08:51:32;;;;;;;12.43;9.10;;;;;;;10.95;81.49;101499.03;5054681;28;20085;-88
2023/04/07 08:54:17;;;;;;;11.85;9.35;;;;;;;11.30;81.78;101550.03;5072956;28;20024;-87
2023/04/07 08:56:44;;;;;;;13.25;9.30;;;;;;;11.10;81.85;101523.53;5076475;28;20468;-87
2023/04/07 08:59:12;;;;;;;12.48;9.45;;;;;;;11.24;81.62;101528.72;5072461;28;20031;-87
2023/04/07 09:01:38;;;;;;;11.93;9.10;;;;;;;11.14;82.18;101522.94;5070712;28;20112;-88
2023/04/07 09:04:06;;;;;;;13.80;9.43;;;;;;;11.27;81.88;101536.78;5074475;28;20512;-88
2023/04/07 09:06:32;;;;;;;11.55;9.10;;;;;;;11.33;81.80;101553.75;5070997;28;20104;-87
2023/04/07 09:08:59;;;;;;;11.50;8.95;;;;;;;11.39;81.52;101562.00;5071189;28;20514;-87
2023/04/07 09:11:28;;;;;;;12.93;9.38;;;;;;;11.32;82.04;101557.16;5072358;28;20058;-88
2023/04/07 09:13:55;;;;;;;11.52;8.57;;;;;;;11.16;81.82;101529.16;5065733;28;20437;-88
2023/04/07 09:16:25;;;;;;;12.93;9.23;;;;;;;11.39;81.55;101562.00;5067735;28;20036;-88
2023/04/07 09:18:52;;;;;;;12.40;8.90;;;;;;;11.40;81.46;101565.50;5064903;28;20409;-89
2023/04/07 09:21:18;;;;;;;12.05;9.07;;;;;;;11.27;81.61;101527.22;5067396;28;20036;-88
2023/04/07 09:23:46;;;;;;;12.27;9.20;;;;;;;10.96;81.60;101479.91;5067750;28;20036;-88
2023/04/07 09:26:26;;;;;;;11.73;9.07;;;;;;;11.43;81.62;101564.78;5068671;28;20040;-88
2023/04/07 09:28:56;;;;;;;12.25;9.23;;;;;;;11.10;81.72;101514.78;5075365;28;20028;-89
2023/04/07 09:31:25;;;;;;;12.48;9.32;;;;;;;11.13;82.08;101512.38;5078014;28;20025;-87
2023/04/07 09:33:51;;;;;;;14.25;9.30;;;;;;;11.36;82.51;101567.00;5062821;28;20020;-90
2023/04/07 09:36:17;;;;;;;11.68;9.27;;;;;;;11.13;82.22;101523.75;5058957;28;20036;-88
2023/04/07 09:38:44;;;;;;;11.73;9.10;;;;;;;11.11;82.34;101527.97;5071524;28;20082;-88
2023/04/07 09:41:15;;;;;;;11.10;9.18;;;;;;;11.37;81.99;101574.06;5070691;28;20114;-88
2023/04/07 09:43:45;;;;;;;13.55;9.35;;;;;;;11.08;82.40;101519.03;5053995;28;20021;-88
2023/04/07 09:46:15;;;;;;;11.75;8.40;;;;;;;11.39;82.46;101572.44;5054228;28;20040;-88
2023/04/07 09:48:42;;;;;;;12.30;8.98;;;;;;;11.19;82.52;101529.34;5034799;28;20047;-88
2023/04/07 09:51:09;;;;;;;11.90;8.68;;;;;;;11.18;82.84;101544.94;5070702;28;20024;-88
2023/04/07 09:53:46;;;;;;;10.95;8.90;;;;;;;11.40;82.31;101573.34;5071340;28;20047;-89
2023/04/07 09:56:12;;;;;;;11.95;9.18;;;;;;;11.41;82.20;101576.06;5071728;28;20452;-88
2023/04/07 09:58:39;;;;;;;11.40;8.57;;;;;;;11.13;82.26;101528.03;5053868;28;20035;-88
2023/04/07 10:01:07;;;;;;;13.05;9.15;;;;;;;11.09;82.37;101526.03;5070544;28;20103;-87
2023/04/07 10:03:33;;;;;;;12.35;8.93;;;;;;;11.18;82.20;101531.88;5053456;28;20024;-87
2023/04/07 10:06:02;;;;;;;12.07;8.77;;;;;;;10.95;82.65;101499.94;5071273;28;20130;-88
2023/04/07 10:08:30;;;;;;;12.23;8.73;;;;;;;11.16;82.36;101528.25;5036198;28;20119;-87
2023/04/07 10:10:57;;;;;;;10.95;8.70;;;;;;;11.27;82.79;101553.38;5052362;28;20020;-88
2023/04/07 10:13:23;;;;;;;11.55;8.63;;;;;;;11.38;82.56;101575.84;5052067;28;20039;-87
2023/04/07 10:15:49;;;;;;;;;;;;;;;11.42;82.31;101576.97;5051285;28;20025;-87
2023/04/07 10:18:17;;;;;;;11.13;8.65;;;;;;;11.45;82.45;101574.56;5056276;28;19942;-86
2023/04/07 10:20:43;;;;;;;12.77;8.73;;;;;;;11.40;82.70;101569.00;5061203;28;20028;-87
2023/04/07 10:23:21;;;;;;;10.95;8.73;;;;;;;11.38;82.31;101569.72;5067203;28;20028;-87
2023/04/07 10:25:49;;;;;;;11.38;8.73;;;;;;;11.48;82.09;101568.63;5050406;28;20527;-87
2023/04/07 10:28:15;;;;;;;11.82;8.57;;;;;;;11.39;82.39;101555.88;5052702;28;20032;-86
2023/04/07 10:30:40;;;;;;;;;;;;;;;11.49;82.32;101567.78;5040714;28;20027;-87
2023/04/07 10:33:06;;;;;;;11.88;8.57;;;;;;;11.27;82.62;101527.22;5066912;28;19916;-86
2023/04/07 10:36:03;;;;;;;11.15;8.25;;;;;;;11.48;83.00;101560.78;5069278;28;20028;-85
2023/04/07 10:38:30;;;;;;;11.27;8.33;;;;;;;11.44;82.91;101556.16;5059131;28;20142;-86
2023/04/07 10:40:56;;;;;;;12.10;8.57;;;;;;;11.36;83.11;101550.44;5072251;28;20028;-86
2023/04/07 10:43:39;;;;;;;10.38;8.07;;;;;;;11.29;83.11;101523.00;5067013;28;20035;-86
2023/04/07 10:46:05;;;;;;;10.15;8.18;;;;;;;11.29;83.17;101532.56;5051273;28;20059;-87
2023/04/07 10:48:32;;;;;;;14.23;8.07;;;;;;;11.32;83.32;101545.81;5068892;28;20483;-88
2023/04/07 10:51:03;;;;;;;11.55;8.70;;;;;;;11.48;82.99;101558.16;5055530;28;20116;-88
2023/04/07 10:53:30;;;;;;;11.35;8.43;;;;;;;11.49;82.52;101566.06;5069774;28;20024;-88
2023/04/07 10:55:56;;;;;;;10.30;8.02;;;;;;;11.48;82.66;101555.53;5052435;28;20394;-87
2023/04/07 10:58:29;;;;;;;11.27;8.65;;;;;;;11.61;82.20;101564.22;5071659;28;20032;-88
2023/04/07 11:01:11;;;;;;;10.15;8.18;;;;;;;11.60;82.24;101565.06;5052465;28;20031;-86
2023/04/07 11:03:57;;;;;;;12.82;8.45;;;;;;;11.64;82.52;101570.47;5069708;28;20085;-87
2023/04/07 11:06:23;;;;;;;12.25;8.32;;;;;;;11.63;82.49;101569.56;5051191;28;20123;-87
2023/04/07 11:08:49;;;;;;;;;;;;;;;11.71;82.34;101572.69;5052912;28;20509;-87
2023/04/07 11:11:34;;;;;;;11.75;7.85;;;;;;;11.70;82.73;101571.75;5070781;28;19912;-87
2023/04/07 11:13:59;;;;;;;14.45;8.65;;;;;;;11.55;82.50;101540.31;5052786;28;20025;-87
2023/04/07 11:16:40;;;;;;;14.52;8.07;;;;;;;11.68;83.44;101557.66;5069070;28;20029;-87
2023/04/07 11:19:06;;;;;;;13.07;8.18;;;;;;;11.41;83.17;101518.53;5039893;28;20029;-88
2023/04/07 11:21:32;;;;;;;15.15;9.10;;;;;;;11.49;82.10;101519.00;5070216;28;20020;-88